sensor_id;sensor_type;location;lat;lon;timestamp;P1;durP1;ratioP1;P2;durP2;ratioP2
36827;SDS011;22766;48.042;11.192;2022-07-22T00:02:00;9.43;;;5.53;;
36827;SDS011;22766;48.042;11.192;2022-07-22T00:04:27;10.60;;;5.28;;
36827;SDS011;22766;48.042;11.192;2022-07-22T00:06:53;9.07;;;5.55;;
36827;SDS011;22766;48.042;11.192;2022-07-22T00:09:20;10.32;;;5.93;;
36827;SDS011;22766;48.042;11.192;2022-07-22T00:11:47;9.50;;;5.05;;
36827;SDS011;22766;48.042;11.192;2022-07-22T00:14:13;8.05;;;5.50;;
36827;SDS011;22766;48.042;11.192;2022-07-22T00:16:40;9.43;;;5.82;;
36827;SDS011;22766;48.042;11.192;2022-07-22T00:19:07;9.85;;;5.47;;
36827;SDS011;22766;48.042;11.192;2022-07-22T00:21:34;11.30;;;6.28;;
36827;SDS011;22766;48.042;11.192;2022-07-22T00:24:01;8.93;;;5.60;;
36827;SDS011;22766;48.042;11.192;2022-07-22T00:26:30;9.27;;;5.80;;
36827;SDS011;22766;48.042;11.192;2022-07-22T00:28:57;8.65;;;5.72;;
36827;SDS011;22766;48.042;11.192;2022-07-22T00:31:26;8.77;;;5.75;;
36827;SDS011;22766;48.042;11.192;2022-07-22T00:33:53;10.95;;;5.38;;
36827;SDS011;22766;48.042;11.192;2022-07-22T00:36:20;12.95;;;6.50;;
36827;SDS011;22766;48.042;11.192;2022-07-22T00:38:46;8.88;;;5.78;;
36827;SDS011;22766;48.042;11.192;2022-07-22T00:41:13;7.70;;;5.72;;
36827;SDS011;22766;48.042;11.192;2022-07-22T00:43:58;10.60;;;6.20;;
36827;SDS011;22766;48.042;11.192;2022-07-22T00:46:26;8.50;;;5.57;;
36827;SDS011;22766;48.042;11.192;2022-07-22T00:48:53;7.85;;;5.45;;
36827;SDS011;22766;48.042;11.192;2022-07-22T00:51:23;9.57;;;5.88;;
36827;SDS011;22766;48.042;11.192;2022-07-22T00:53:51;8.00;;;5.55;;
36827;SDS011;22766;48.042;11.192;2022-07-22T00:56:18;12.60;;;5.82;;
36827;SDS011;22766;48.042;11.192;2022-07-22T00:58:47;8.38;;;5.13;;
36827;SDS011;22766;48.042;11.192;2022-07-22T01:01:15;7.30;;;5.07;;
36827;SDS011;22766;48.042;11.192;2022-07-22T01:03:43;9.40;;;5.53;;
36827;SDS011;22766;48.042;11.192;2022-07-22T01:06:15;10.85;;;6.07;;
36827;SDS011;22766;48.042;11.192;2022-07-22T01:08:42;11.10;;;6.03;;
36827;SDS011;22766;48.042;11.192;2022-07-22T01:11:10;11.00;;;5.93;;
36827;SDS011;22766;48.042;11.192;2022-07-22T01:13:38;10.40;;;5.47;;
36827;SDS011;22766;48.042;11.192;2022-07-22T01:16:06;9.00;;;4.97;;
36827;SDS011;22766;48.042;11.192;2022-07-22T01:18:35;10.13;;;5.00;;
36827;SDS011;22766;48.042;11.192;2022-07-22T01:21:04;7.95;;;4.85;;
36827;SDS011;22766;48.042;11.192;2022-07-22T01:23:32;8.57;;;5.10;;
36827;SDS011;22766;48.042;11.192;2022-07-22T01:25:59;7.90;;;5.43;;
36827;SDS011;22766;48.042;11.192;2022-07-22T01:28:26;8.18;;;5.10;;
36827;SDS011;22766;48.042;11.192;2022-07-22T01:30:53;9.55;;;4.93;;
36827;SDS011;22766;48.042;11.192;2022-07-22T01:33:20;7.53;;;4.95;;
36827;SDS011;22766;48.042;11.192;2022-07-22T01:35:48;7.03;;;5.13;;
36827;SDS011;22766;48.042;11.192;2022-07-22T01:38:15;10.20;;;5.45;;
36827;SDS011;22766;48.042;11.192;2022-07-22T01:40:44;7.55;;;5.43;;
36827;SDS011;22766;48.042;11.192;2022-07-22T01:43:12;8.18;;;5.05;;
36827;SDS011;22766;48.042;11.192;2022-07-22T01:45:45;8.98;;;5.85;;
36827;SDS011;22766;48.042;11.192;2022-07-22T01:48:12;9.55;;;5.43;;
36827;SDS011;22766;48.042;11.192;2022-07-22T01:50:40;10.20;;;6.47;;
36827;SDS011;22766;48.042;11.192;2022-07-22T01:53:08;8.23;;;5.70;;
36827;SDS011;22766;48.042;11.192;2022-07-22T01:55:35;10.02;;;6.35;;
36827;SDS011;22766;48.042;11.192;2022-07-22T01:58:02;9.75;;;5.70;;
36827;SDS011;22766;48.042;11.192;2022-07-22T02:00:32;8.65;;;5.22;;
36827;SDS011;22766;48.042;11.192;2022-07-22T02:03:02;10.60;;;7.32;;
36827;SDS011;22766;48.042;11.192;2022-07-22T02:05:30;9.50;;;5.20;;
36827;SDS011;22766;48.042;11.192;2022-07-22T02:08:03;10.20;;;5.00;;
36827;SDS011;22766;48.042;11.192;2022-07-22T02:10:51;9.88;;;6.25;;
36827;SDS011;22766;48.042;11.192;2022-07-22T02:13:18;12.40;;;6.50;;
36827;SDS011;22766;48.042;11.192;2022-07-22T02:15:45;9.32;;;6.13;;
36827;SDS011;22766;48.042;11.192;2022-07-22T02:18:12;8.05;;;5.63;;
36827;SDS011;22766;48.042;11.192;2022-07-22T02:20:42;11.10;;;6.28;;
36827;SDS011;22766;48.042;11.192;2022-07-22T02:23:09;9.07;;;5.70;;
36827;SDS011;22766;48.042;11.192;2022-07-22T02:25:39;8.15;;;5.20;;
36827;SDS011;22766;48.042;11.192;2022-07-22T02:28:07;7.30;;;5.53;;
36827;SDS011;22766;48.042;11.192;2022-07-22T02:30:34;8.30;;;5.32;;
36827;SDS011;22766;48.042;11.192;2022-07-22T02:33:01;8.70;;;5.47;;
36827;SDS011;22766;48.042;11.192;2022-07-22T02:35:28;9.75;;;6.07;;
36827;SDS011;22766;48.042;11.192;2022-07-22T02:37:57;11.70;;;6.25;;
36827;SDS011;22766;48.042;11.192;2022-07-22T02:40:24;10.18;;;6.35;;
36827;SDS011;22766;48.042;11.192;2022-07-22T02:42:51;10.02;;;5.82;;
36827;SDS011;22766;48.042;11.192;2022-07-22T02:45:17;8.85;;;5.07;;
36827;SDS011;22766;48.042;11.192;2022-07-22T02:47:45;8.63;;;5.20;;
36827;SDS011;22766;48.042;11.192;2022-07-22T02:50:17;14.48;;;6.32;;
36827;SDS011;22766;48.042;11.192;2022-07-22T02:52:44;11.75;;;5.47;;
36827;SDS011;22766;48.042;11.192;2022-07-22T02:55:13;8.15;;;5.30;;
36827;SDS011;22766;48.042;11.192;2022-07-22T02:57:40;10.95;;;5.70;;
36827;SDS011;22766;48.042;11.192;2022-07-22T03:00:07;10.27;;;6.50;;
36827;SDS011;22766;48.042;11.192;2022-07-22T03:02:36;10.07;;;6.70;;
36827;SDS011;22766;48.042;11.192;2022-07-22T03:05:04;9.63;;;6.13;;
36827;SDS011;22766;48.042;11.192;2022-07-22T03:07:37;11.70;;;6.30;;
36827;SDS011;22766;48.042;11.192;2022-07-22T03:10:05;12.45;;;6.97;;
36827;SDS011;22766;48.042;11.192;2022-07-22T03:12:36;14.03;;;7.33;;
36827;SDS011;22766;48.042;11.192;2022-07-22T03:15:04;13.63;;;7.18;;
36827;SDS011;22766;48.042;11.192;2022-07-22T03:17:34;9.55;;;5.63;;
36827;SDS011;22766;48.042;11.192;2022-07-22T03:20:03;11.35;;;6.28;;
36827;SDS011;22766;48.042;11.192;2022-07-22T03:22:34;11.23;;;6.85;;
36827;SDS011;22766;48.042;11.192;2022-07-22T03:25:02;9.30;;;6.25;;
36827;SDS011;22766;48.042;11.192;2022-07-22T03:27:29;11.77;;;6.68;;
36827;SDS011;22766;48.042;11.192;2022-07-22T03:29:56;12.50;;;6.70;;
36827;SDS011;22766;48.042;11.192;2022-07-22T03:32:23;10.82;;;7.18;;
36827;SDS011;22766;48.042;11.192;2022-07-22T03:34:50;13.88;;;7.68;;
36827;SDS011;22766;48.042;11.192;2022-07-22T03:37:19;10.18;;;7.13;;
36827;SDS011;22766;48.042;11.192;2022-07-22T03:39:46;12.85;;;7.18;;
36827;SDS011;22766;48.042;11.192;2022-07-22T03:42:13;11.43;;;6.57;;
36827;SDS011;22766;48.042;11.192;2022-07-22T03:44:46;11.38;;;6.43;;
36827;SDS011;22766;48.042;11.192;2022-07-22T03:47:19;11.02;;;6.32;;
36827;SDS011;22766;48.042;11.192;2022-07-22T03:49:49;8.10;;;5.53;;
36827;SDS011;22766;48.042;11.192;2022-07-22T03:52:23;8.23;;;5.72;;
36827;SDS011;22766;48.042;11.192;2022-07-22T03:54:51;10.70;;;6.55;;
36827;SDS011;22766;48.042;11.192;2022-07-22T03:57:17;11.63;;;6.05;;
36827;SDS011;22766;48.042;11.192;2022-07-22T03:59:49;10.48;;;6.03;;
36827;SDS011;22766;48.042;11.192;2022-07-22T04:02:15;8.88;;;6.05;;
36827;SDS011;22766;48.042;11.192;2022-07-22T04:04:42;10.15;;;5.60;;
36827;SDS011;22766;48.042;11.192;2022-07-22T04:07:09;11.00;;;5.88;;
36827;SDS011;22766;48.042;11.192;2022-07-22T04:09:36;9.95;;;5.93;;
36827;SDS011;22766;48.042;11.192;2022-07-22T04:12:02;8.38;;;5.07;;
36827;SDS011;22766;48.042;11.192;2022-07-22T04:14:35;8.90;;;5.20;;
36827;SDS011;22766;48.042;11.192;2022-07-22T04:17:02;9.75;;;5.40;;
36827;SDS011;22766;48.042;11.192;2022-07-22T04:19:29;9.85;;;5.57;;
36827;SDS011;22766;48.042;11.192;2022-07-22T04:21:58;8.02;;;5.43;;
36827;SDS011;22766;48.042;11.192;2022-07-22T04:24:27;9.00;;;5.15;;
36827;SDS011;22766;48.042;11.192;2022-07-22T04:26:57;12.95;;;6.53;;
36827;SDS011;22766;48.042;11.192;2022-07-22T04:29:24;10.93;;;6.28;;
36827;SDS011;22766;48.042;11.192;2022-07-22T04:31:51;8.05;;;5.40;;
36827;SDS011;22766;48.042;11.192;2022-07-22T04:34:25;9.27;;;5.50;;
36827;SDS011;22766;48.042;11.192;2022-07-22T04:36:53;10.02;;;5.45;;
36827;SDS011;22766;48.042;11.192;2022-07-22T04:39:20;7.60;;;4.55;;
36827;SDS011;22766;48.042;11.192;2022-07-22T04:41:53;9.73;;;5.35;;
36827;SDS011;22766;48.042;11.192;2022-07-22T04:44:21;8.73;;;5.80;;
36827;SDS011;22766;48.042;11.192;2022-07-22T04:46:48;7.85;;;5.07;;
36827;SDS011;22766;48.042;11.192;2022-07-22T04:49:15;9.93;;;5.75;;
36827;SDS011;22766;48.042;11.192;2022-07-22T04:51:42;8.88;;;5.68;;
36827;SDS011;22766;48.042;11.192;2022-07-22T04:54:13;11.85;;;6.43;;
36827;SDS011;22766;48.042;11.192;2022-07-22T04:56:42;8.63;;;5.72;;
36827;SDS011;22766;48.042;11.192;2022-07-22T04:59:10;10.45;;;6.00;;
36827;SDS011;22766;48.042;11.192;2022-07-22T05:01:37;10.70;;;6.32;;
36827;SDS011;22766;48.042;11.192;2022-07-22T05:04:06;7.85;;;5.43;;
36827;SDS011;22766;48.042;11.192;2022-07-22T05:06:33;9.48;;;5.47;;
36827;SDS011;22766;48.042;11.192;2022-07-22T05:09:01;9.30;;;5.93;;
36827;SDS011;22766;48.042;11.192;2022-07-22T05:11:29;10.60;;;6.82;;
36827;SDS011;22766;48.042;11.192;2022-07-22T05:13:56;7.78;;;5.32;;
36827;SDS011;22766;48.042;11.192;2022-07-22T05:16:24;9.60;;;6.13;;
36827;SDS011;22766;48.042;11.192;2022-07-22T05:18:50;9.95;;;5.63;;
36827;SDS011;22766;48.042;11.192;2022-07-22T05:21:19;11.52;;;6.28;;
36827;SDS011;22766;48.042;11.192;2022-07-22T05:23:45;10.38;;;6.20;;
36827;SDS011;22766;48.042;11.192;2022-07-22T05:26:14;9.70;;;6.03;;
36827;SDS011;22766;48.042;11.192;2022-07-22T05:28:40;10.65;;;5.93;;
36827;SDS011;22766;48.042;11.192;2022-07-22T05:31:07;9.77;;;6.22;;
36827;SDS011;22766;48.042;11.192;2022-07-22T05:33:36;9.52;;;5.85;;
36827;SDS011;22766;48.042;11.192;2022-07-22T05:36:05;11.75;;;6.00;;
36827;SDS011;22766;48.042;11.192;2022-07-22T05:38:39;9.48;;;6.22;;
36827;SDS011;22766;48.042;11.192;2022-07-22T05:41:07;11.32;;;5.97;;
36827;SDS011;22766;48.042;11.192;2022-07-22T05:43:34;9.60;;;6.35;;
36827;SDS011;22766;48.042;11.192;2022-07-22T05:46:03;9.15;;;5.82;;
36827;SDS011;22766;48.042;11.192;2022-07-22T05:48:31;10.90;;;6.22;;
36827;SDS011;22766;48.042;11.192;2022-07-22T05:50:57;8.45;;;5.35;;
36827;SDS011;22766;48.042;11.192;2022-07-22T05:53:24;9.75;;;6.43;;
36827;SDS011;22766;48.042;11.192;2022-07-22T05:55:52;8.40;;;5.80;;
36827;SDS011;22766;48.042;11.192;2022-07-22T05:58:19;9.20;;;5.90;;
36827;SDS011;22766;48.042;11.192;2022-07-22T06:00:45;9.82;;;6.15;;
36827;SDS011;22766;48.042;11.192;2022-07-22T06:03:12;10.40;;;5.72;;
36827;SDS011;22766;48.042;11.192;2022-07-22T06:05:44;7.43;;;5.20;;
36827;SDS011;22766;48.042;11.192;2022-07-22T06:08:11;8.68;;;5.68;;
36827;SDS011;22766;48.042;11.192;2022-07-22T06:10:45;11.30;;;6.03;;
36827;SDS011;22766;48.042;11.192;2022-07-22T06:13:12;8.25;;;5.35;;
36827;SDS011;22766;48.042;11.192;2022-07-22T06:15:40;8.15;;;5.97;;
36827;SDS011;22766;48.042;11.192;2022-07-22T06:18:07;8.88;;;5.53;;
36827;SDS011;22766;48.042;11.192;2022-07-22T06:20:34;7.50;;;5.50;;
36827;SDS011;22766;48.042;11.192;2022-07-22T06:23:02;9.15;;;6.05;;
36827;SDS011;22766;48.042;11.192;2022-07-22T06:25:29;9.25;;;5.80;;
36827;SDS011;22766;48.042;11.192;2022-07-22T06:30:46;7.70;;;5.25;;
36827;SDS011;22766;48.042;11.192;2022-07-22T06:33:14;11.10;;;6.63;;
36827;SDS011;22766;48.042;11.192;2022-07-22T06:35:41;10.25;;;5.75;;
36827;SDS011;22766;48.042;11.192;2022-07-22T06:38:09;8.15;;;6.07;;
36827;SDS011;22766;48.042;11.192;2022-07-22T06:41:12;8.73;;;5.35;;
36827;SDS011;22766;48.042;11.192;2022-07-22T06:43:52;7.93;;;5.85;;
36827;SDS011;22766;48.042;11.192;2022-07-22T06:46:42;11.13;;;6.22;;
36827;SDS011;22766;48.042;11.192;2022-07-22T06:49:09;12.18;;;6.22;;
36827;SDS011;22766;48.042;11.192;2022-07-22T06:51:40;8.38;;;5.95;;
36827;SDS011;22766;48.042;11.192;2022-07-22T06:54:06;12.27;;;5.93;;
36827;SDS011;22766;48.042;11.192;2022-07-22T06:56:33;12.73;;;7.50;;
36827;SDS011;22766;48.042;11.192;2022-07-22T06:59:00;9.60;;;6.68;;
36827;SDS011;22766;48.042;11.192;2022-07-22T07:01:27;8.35;;;5.28;;
36827;SDS011;22766;48.042;11.192;2022-07-22T07:03:58;8.77;;;5.70;;
36827;SDS011;22766;48.042;11.192;2022-07-22T07:06:25;9.82;;;5.95;;
36827;SDS011;22766;48.042;11.192;2022-07-22T07:09:12;7.93;;;5.53;;
36827;SDS011;22766;48.042;11.192;2022-07-22T07:11:44;8.35;;;5.18;;
36827;SDS011;22766;48.042;11.192;2022-07-22T07:14:17;7.00;;;5.10;;
36827;SDS011;22766;48.042;11.192;2022-07-22T07:16:44;9.18;;;6.07;;
36827;SDS011;22766;48.042;11.192;2022-07-22T07:19:11;11.15;;;6.10;;
36827;SDS011;22766;48.042;11.192;2022-07-22T07:21:37;11.02;;;6.10;;
36827;SDS011;22766;48.042;11.192;2022-07-22T07:24:04;7.82;;;5.63;;
36827;SDS011;22766;48.042;11.192;2022-07-22T07:26:31;10.98;;;6.50;;
36827;SDS011;22766;48.042;11.192;2022-07-22T07:28:58;11.75;;;6.45;;
36827;SDS011;22766;48.042;11.192;2022-07-22T07:31:35;10.38;;;6.47;;
36827;SDS011;22766;48.042;11.192;2022-07-22T07:34:08;7.72;;;5.90;;
36827;SDS011;22766;48.042;11.192;2022-07-22T07:36:35;10.40;;;6.32;;
36827;SDS011;22766;48.042;11.192;2022-07-22T07:39:03;12.18;;;6.70;;
36827;SDS011;22766;48.042;11.192;2022-07-22T07:41:29;8.38;;;5.95;;
36827;SDS011;22766;48.042;11.192;2022-07-22T07:44:00;11.23;;;6.55;;
36827;SDS011;22766;48.042;11.192;2022-07-22T07:46:26;10.65;;;6.15;;
36827;SDS011;22766;48.042;11.192;2022-07-22T07:48:55;9.13;;;6.05;;
36827;SDS011;22766;48.042;11.192;2022-07-22T07:51:22;11.80;;;6.35;;
36827;SDS011;22766;48.042;11.192;2022-07-22T07:53:51;11.18;;;6.68;;
36827;SDS011;22766;48.042;11.192;2022-07-22T07:56:18;12.25;;;5.72;;
36827;SDS011;22766;48.042;11.192;2022-07-22T07:58:45;8.57;;;4.97;;
36827;SDS011;22766;48.042;11.192;2022-07-22T08:01:32;7.53;;;4.72;;
36827;SDS011;22766;48.042;11.192;2022-07-22T08:04:19;10.35;;;5.68;;
36827;SDS011;22766;48.042;11.192;2022-07-22T08:07:05;9.70;;;4.93;;
36827;SDS011;22766;48.042;11.192;2022-07-22T08:09:33;9.25;;;5.18;;
36827;SDS011;22766;48.042;11.192;2022-07-22T08:12:12;6.17;;;5.47;;
36827;SDS011;22766;48.042;11.192;2022-07-22T08:14:52;9.68;;;6.00;;
36827;SDS011;22766;48.042;11.192;2022-07-22T08:17:37;10.57;;;5.85;;
36827;SDS011;22766;48.042;11.192;2022-07-22T08:20:05;6.70;;;4.78;;
36827;SDS011;22766;48.042;11.192;2022-07-22T08:22:32;8.88;;;5.47;;
36827;SDS011;22766;48.042;11.192;2022-07-22T08:24:59;9.95;;;5.78;;
36827;SDS011;22766;48.042;11.192;2022-07-22T08:27:27;7.70;;;5.13;;
36827;SDS011;22766;48.042;11.192;2022-07-22T08:29:54;9.32;;;5.88;;
36827;SDS011;22766;48.042;11.192;2022-07-22T08:32:21;8.05;;;5.05;;
36827;SDS011;22766;48.042;11.192;2022-07-22T08:34:48;7.63;;;4.85;;
36827;SDS011;22766;48.042;11.192;2022-07-22T08:37:16;7.85;;;4.53;;
36827;SDS011;22766;48.042;11.192;2022-07-22T08:39:43;8.93;;;5.38;;
36827;SDS011;22766;48.042;11.192;2022-07-22T08:42:10;7.43;;;4.90;;
36827;SDS011;22766;48.042;11.192;2022-07-22T08:44:37;7.53;;;4.70;;
36827;SDS011;22766;48.042;11.192;2022-07-22T08:47:04;8.85;;;4.93;;
36827;SDS011;22766;48.042;11.192;2022-07-22T08:50:10;6.18;;;4.32;;
36827;SDS011;22766;48.042;11.192;2022-07-22T08:53:01;6.50;;;4.93;;
36827;SDS011;22766;48.042;11.192;2022-07-22T08:55:27;9.40;;;5.28;;
36827;SDS011;22766;48.042;11.192;2022-07-22T08:57:54;6.60;;;5.07;;
36827;SDS011;22766;48.042;11.192;2022-07-22T09:00:21;9.07;;;5.28;;
36827;SDS011;22766;48.042;11.192;2022-07-22T09:02:50;6.68;;;4.32;;
36827;SDS011;22766;48.042;11.192;2022-07-22T09:05:16;8.02;;;5.05;;
36827;SDS011;22766;48.042;11.192;2022-07-22T09:08:07;8.10;;;4.68;;
36827;SDS011;22766;48.042;11.192;2022-07-22T09:10:59;7.00;;;4.72;;
36827;SDS011;22766;48.042;11.192;2022-07-22T09:14:00;6.32;;;4.60;;
36827;SDS011;22766;48.042;11.192;2022-07-22T09:16:44;12.77;;;4.47;;
36827;SDS011;22766;48.042;11.192;2022-07-22T09:19:32;11.20;;;5.28;;
36827;SDS011;22766;48.042;11.192;2022-07-22T09:22:38;7.45;;;4.40;;
36827;SDS011;22766;48.042;11.192;2022-07-22T09:25:31;6.25;;;4.45;;
36827;SDS011;22766;48.042;11.192;2022-07-22T09:28:21;6.72;;;4.18;;
36827;SDS011;22766;48.042;11.192;2022-07-22T09:31:28;6.95;;;4.13;;
36827;SDS011;22766;48.042;11.192;2022-07-22T09:34:14;6.10;;;4.03;;
36827;SDS011;22766;48.042;11.192;2022-07-22T09:36:54;6.05;;;4.35;;
36827;SDS011;22766;48.042;11.192;2022-07-22T09:39:26;6.20;;;3.88;;
36827;SDS011;22766;48.042;11.192;2022-07-22T09:42:05;6.80;;;4.13;;
36827;SDS011;22766;48.042;11.192;2022-07-22T09:44:34;5.55;;;3.67;;
36827;SDS011;22766;48.042;11.192;2022-07-22T09:47:27;4.80;;;3.78;;
36827;SDS011;22766;48.042;11.192;2022-07-22T09:50:27;4.68;;;3.55;;
36827;SDS011;22766;48.042;11.192;2022-07-22T09:53:22;5.07;;;3.53;;
36827;SDS011;22766;48.042;11.192;2022-07-22T09:56:04;5.18;;;3.55;;
36827;SDS011;22766;48.042;11.192;2022-07-22T09:58:32;5.70;;;3.78;;
36827;SDS011;22766;48.042;11.192;2022-07-22T10:01:04;4.72;;;3.90;;
36827;SDS011;22766;48.042;11.192;2022-07-22T10:03:33;5.07;;;3.80;;
36827;SDS011;22766;48.042;11.192;2022-07-22T10:06:04;6.72;;;3.88;;
36827;SDS011;22766;48.042;11.192;2022-07-22T10:08:33;6.38;;;4.32;;
36827;SDS011;22766;48.042;11.192;2022-07-22T10:11:01;9.63;;;3.85;;
36827;SDS011;22766;48.042;11.192;2022-07-22T10:13:30;6.25;;;4.03;;
36827;SDS011;22766;48.042;11.192;2022-07-22T10:15:58;6.03;;;4.32;;
36827;SDS011;22766;48.042;11.192;2022-07-22T10:18:26;8.45;;;4.35;;
36827;SDS011;22766;48.042;11.192;2022-07-22T10:21:02;4.88;;;3.80;;
36827;SDS011;22766;48.042;11.192;2022-07-22T10:23:31;7.97;;;3.63;;
36827;SDS011;22766;48.042;11.192;2022-07-22T10:26:01;4.65;;;3.40;;
36827;SDS011;22766;48.042;11.192;2022-07-22T10:28:31;4.72;;;4.05;;
36827;SDS011;22766;48.042;11.192;2022-07-22T10:33:43;6.25;;;4.20;;
36827;SDS011;22766;48.042;11.192;2022-07-22T10:36:11;5.30;;;3.65;;
36827;SDS011;22766;48.042;11.192;2022-07-22T10:39:01;9.30;;;4.05;;
36827;SDS011;22766;48.042;11.192;2022-07-22T10:41:33;6.57;;;3.50;;
36827;SDS011;22766;48.042;11.192;2022-07-22T10:44:02;6.00;;;3.85;;
36827;SDS011;22766;48.042;11.192;2022-07-22T10:49:19;6.20;;;4.03;;
36827;SDS011;22766;48.042;11.192;2022-07-22T10:55:15;8.07;;;3.80;;
36827;SDS011;22766;48.042;11.192;2022-07-22T10:57:40;5.63;;;3.88;;
36827;SDS011;22766;48.042;11.192;2022-07-22T11:00:07;7.90;;;3.75;;
36827;SDS011;22766;48.042;11.192;2022-07-22T11:02:34;4.97;;;3.75;;
36827;SDS011;22766;48.042;11.192;2022-07-22T11:05:04;6.00;;;3.47;;
36827;SDS011;22766;48.042;11.192;2022-07-22T11:07:33;5.85;;;4.05;;
36827;SDS011;22766;48.042;11.192;2022-07-22T11:10:10;8.43;;;4.13;;
36827;SDS011;22766;48.042;11.192;2022-07-22T11:12:44;4.43;;;3.40;;
36827;SDS011;22766;48.042;11.192;2022-07-22T11:15:16;4.78;;;3.72;;
36827;SDS011;22766;48.042;11.192;2022-07-22T11:17:43;6.10;;;3.78;;
36827;SDS011;22766;48.042;11.192;2022-07-22T11:20:11;6.82;;;3.83;;
36827;SDS011;22766;48.042;11.192;2022-07-22T11:22:40;4.88;;;3.60;;
36827;SDS011;22766;48.042;11.192;2022-07-22T11:25:08;9.70;;;4.30;;
36827;SDS011;22766;48.042;11.192;2022-07-22T11:27:36;6.30;;;4.05;;
36827;SDS011;22766;48.042;11.192;2022-07-22T11:30:03;5.43;;;3.88;;
36827;SDS011;22766;48.042;11.192;2022-07-22T11:32:40;5.45;;;4.28;;
36827;SDS011;22766;48.042;11.192;2022-07-22T11:35:12;4.47;;;3.60;;
36827;SDS011;22766;48.042;11.192;2022-07-22T11:37:39;7.68;;;4.18;;
36827;SDS011;22766;48.042;11.192;2022-07-22T11:40:07;6.75;;;4.07;;
36827;SDS011;22766;48.042;11.192;2022-07-22T11:42:35;5.20;;;4.05;;
36827;SDS011;22766;48.042;11.192;2022-07-22T11:45:02;6.38;;;4.43;;
36827;SDS011;22766;48.042;11.192;2022-07-22T11:47:30;6.20;;;3.67;;
36827;SDS011;22766;48.042;11.192;2022-07-22T11:49:57;4.53;;;3.83;;
36827;SDS011;22766;48.042;11.192;2022-07-22T11:52:24;5.75;;;4.10;;
36827;SDS011;22766;48.042;11.192;2022-07-22T11:54:50;10.43;;;4.53;;
36827;SDS011;22766;48.042;11.192;2022-07-22T11:57:17;6.88;;;3.80;;
36827;SDS011;22766;48.042;11.192;2022-07-22T11:59:44;6.50;;;4.30;;
36827;SDS011;22766;48.042;11.192;2022-07-22T12:02:13;7.50;;;3.63;;
36827;SDS011;22766;48.042;11.192;2022-07-22T12:04:41;6.38;;;4.00;;
36827;SDS011;22766;48.042;11.192;2022-07-22T12:07:11;5.05;;;3.50;;
36827;SDS011;22766;48.042;11.192;2022-07-22T12:09:39;5.45;;;4.13;;
36827;SDS011;22766;48.042;11.192;2022-07-22T12:12:08;5.88;;;4.32;;
36827;SDS011;22766;48.042;11.192;2022-07-22T12:14:35;5.63;;;4.05;;
36827;SDS011;22766;48.042;11.192;2022-07-22T12:17:11;7.07;;;4.00;;
36827;SDS011;22766;48.042;11.192;2022-07-22T12:19:39;7.93;;;3.42;;
36827;SDS011;22766;48.042;11.192;2022-07-22T12:22:10;5.43;;;3.70;;
36827;SDS011;22766;48.042;11.192;2022-07-22T12:24:41;5.30;;;3.90;;
36827;SDS011;22766;48.042;11.192;2022-07-22T12:27:10;5.15;;;3.35;;
36827;SDS011;22766;48.042;11.192;2022-07-22T12:32:06;4.45;;;3.45;;
36827;SDS011;22766;48.042;11.192;2022-07-22T12:34:38;5.40;;;3.60;;
36827;SDS011;22766;48.042;11.192;2022-07-22T12:37:13;7.63;;;4.05;;
36827;SDS011;22766;48.042;11.192;2022-07-22T12:39:51;4.75;;;3.35;;
36827;SDS011;22766;48.042;11.192;2022-07-22T12:42:24;4.25;;;3.15;;
36827;SDS011;22766;48.042;11.192;2022-07-22T12:45:15;5.00;;;3.47;;
36827;SDS011;22766;48.042;11.192;2022-07-22T12:47:46;5.13;;;3.78;;
36827;SDS011;22766;48.042;11.192;2022-07-22T12:50:21;7.63;;;4.30;;
36827;SDS011;22766;48.042;11.192;2022-07-22T12:52:57;8.35;;;3.55;;
36827;SDS011;22766;48.042;11.192;2022-07-22T12:55:51;8.93;;;3.60;;
36827;SDS011;22766;48.042;11.192;2022-07-22T12:58:29;7.75;;;3.83;;
36827;SDS011;22766;48.042;11.192;2022-07-22T13:00:57;6.25;;;3.17;;
36827;SDS011;22766;48.042;11.192;2022-07-22T13:03:26;7.03;;;3.90;;
36827;SDS011;22766;48.042;11.192;2022-07-22T13:05:57;10.15;;;4.05;;
36827;SDS011;22766;48.042;11.192;2022-07-22T13:08:26;6.70;;;3.80;;
36827;SDS011;22766;48.042;11.192;2022-07-22T13:11:10;7.03;;;3.20;;
36827;SDS011;22766;48.042;11.192;2022-07-22T13:13:36;6.18;;;3.17;;
36827;SDS011;22766;48.042;11.192;2022-07-22T13:16:03;4.97;;;3.47;;
36827;SDS011;22766;48.042;11.192;2022-07-22T13:18:30;5.45;;;3.63;;
36827;SDS011;22766;48.042;11.192;2022-07-22T13:20:57;5.13;;;3.38;;
36827;SDS011;22766;48.042;11.192;2022-07-22T13:23:24;5.63;;;3.53;;
36827;SDS011;22766;48.042;11.192;2022-07-22T13:25:51;4.07;;;3.08;;
36827;SDS011;22766;48.042;11.192;2022-07-22T13:28:21;6.32;;;3.92;;
36827;SDS011;22766;48.042;11.192;2022-07-22T13:30:48;5.20;;;3.30;;
36827;SDS011;22766;48.042;11.192;2022-07-22T13:33:15;4.50;;;3.60;;
36827;SDS011;22766;48.042;11.192;2022-07-22T13:35:43;6.57;;;3.83;;
36827;SDS011;22766;48.042;11.192;2022-07-22T13:38:10;5.43;;;3.80;;
36827;SDS011;22766;48.042;11.192;2022-07-22T13:40:41;4.70;;;3.28;;
36827;SDS011;22766;48.042;11.192;2022-07-22T13:43:08;7.28;;;3.60;;
36827;SDS011;22766;48.042;11.192;2022-07-22T13:45:40;4.88;;;3.70;;
36827;SDS011;22766;48.042;11.192;2022-07-22T13:48:07;4.68;;;3.60;;
36827;SDS011;22766;48.042;11.192;2022-07-22T13:50:34;7.13;;;3.70;;
36827;SDS011;22766;48.042;11.192;2022-07-22T13:53:01;4.57;;;3.45;;
36827;SDS011;22766;48.042;11.192;2022-07-22T13:55:27;4.30;;;3.08;;
36827;SDS011;22766;48.042;11.192;2022-07-22T13:57:54;5.28;;;3.58;;
36827;SDS011;22766;48.042;11.192;2022-07-22T14:00:24;7.25;;;3.33;;
36827;SDS011;22766;48.042;11.192;2022-07-22T14:02:51;4.03;;;3.47;;
36827;SDS011;22766;48.042;11.192;2022-07-22T14:05:18;5.15;;;2.97;;
36827;SDS011;22766;48.042;11.192;2022-07-22T14:07:45;4.47;;;3.28;;
36827;SDS011;22766;48.042;11.192;2022-07-22T14:10:12;6.10;;;3.70;;
36827;SDS011;22766;48.042;11.192;2022-07-22T14:12:41;4.50;;;3.33;;
36827;SDS011;22766;48.042;11.192;2022-07-22T14:15:08;6.63;;;3.88;;
36827;SDS011;22766;48.042;11.192;2022-07-22T14:20:06;4.70;;;3.72;;
36827;SDS011;22766;48.042;11.192;2022-07-22T14:22:34;4.50;;;3.45;;
36827;SDS011;22766;48.042;11.192;2022-07-22T14:25:01;4.03;;;3.50;;
36827;SDS011;22766;48.042;11.192;2022-07-22T14:27:28;5.57;;;3.20;;
36827;SDS011;22766;48.042;11.192;2022-07-22T14:29:54;7.07;;;4.07;;
36827;SDS011;22766;48.042;11.192;2022-07-22T14:32:21;4.82;;;3.53;;
36827;SDS011;22766;48.042;11.192;2022-07-22T14:34:47;5.55;;;3.90;;
36827;SDS011;22766;48.042;11.192;2022-07-22T14:37:14;5.65;;;4.20;;
36827;SDS011;22766;48.042;11.192;2022-07-22T14:39:41;6.25;;;4.32;;
36827;SDS011;22766;48.042;11.192;2022-07-22T14:42:07;7.32;;;4.53;;
36827;SDS011;22766;48.042;11.192;2022-07-22T14:44:34;4.22;;;3.40;;
36827;SDS011;22766;48.042;11.192;2022-07-22T14:47:01;5.32;;;4.10;;
36827;SDS011;22766;48.042;11.192;2022-07-22T14:49:28;5.65;;;3.50;;
36827;SDS011;22766;48.042;11.192;2022-07-22T14:51:55;4.60;;;4.07;;
36827;SDS011;22766;48.042;11.192;2022-07-22T14:54:21;5.43;;;4.13;;
36827;SDS011;22766;48.042;11.192;2022-07-22T14:56:48;4.15;;;3.13;;
36827;SDS011;22766;48.042;11.192;2022-07-22T14:59:14;5.43;;;3.30;;
36827;SDS011;22766;48.042;11.192;2022-07-22T15:01:41;5.32;;;3.70;;
36827;SDS011;22766;48.042;11.192;2022-07-22T15:04:08;4.45;;;3.35;;
36827;SDS011;22766;48.042;11.192;2022-07-22T15:06:34;5.95;;;3.53;;